シンガポール・チャンギ国際空港の過去48時間の天気

シンガポール・チャンギ国際空港 (Singapore / Changi Airport)

現在時刻: 12/1 04:31 +08 (11/30 20:31 UTC) 以下の時間は現地時間です。

過去48時間のMETAR気象情報
時間 風向 風速(m/s) 視程 気温(℃) 湿度(%) 気圧(hPa) 天気現象
1 04:00 不定 1 10km以上 26 94 1008
1 03:30 不定 1 10km以上 26 94 1009
1 03:00 不定 1 10km以上 26 94 1009
1 02:30 不定 1 10km以上 26 94 1010
1 02:00 不定 1 10km以上 26 89 1010
1 01:30 不定 1 10km以上 26 89 1010
1 01:00 1 10km以上 26 89 1010
1 00:30 不定 1 10km以上 26 89 1010
1 00:00 北東 2 10km以上 26 89 1010
30 23:30 北北東 2 10km以上 26 89 1010
30 23:00 北東 1 10km以上 26 89 1010
30 22:30 不定 1 10km以上 26 89 1010
30 22:00 北東 2 10km以上 26 89 1010
30 21:30 不定 1 10km以上 26 89 1010
30 21:00 北北東 2 10km以上 26 89 1009
30 20:30 不定 1 10km以上 26 89 1009
30 20:00 北北東 2 10km以上 26 89 1008
30 19:30 不定 1 10km以上 26 89 1008
30 19:00 東北東 3 10km以上 26 89 1008
30 18:30 東北東 2 10km以上 27 89 1007
30 18:00 北東 2 10km以上 27 89 1007
30 17:30 東南東 3 10km以上 27 84 1007
30 17:00 南東 3 10km以上 27 84 1006
30 16:30 2 10km以上 27 84 1007
30 16:00 不定 2 10km以上 27 84 1006
30 15:30 南南西 2 10km以上 26 89 1007
30 15:00 不定 2 8000m 26 89 1007 弱い雷雨
30 14:30 不定 2 2500m 25 94 1008 強い雷雨
30 14:00 3 6000m 27 84 1008 弱い雷雨
30 13:30 北東 2 10km以上 30 70 1008 周辺で雷
30 13:00 北東 3 10km以上 30 70 1008
30 12:30 北東 4 10km以上 32 67 1009
30 12:00 東北東 4 10km以上 32 67 1009
30 11:30 北東 4 10km以上 31 66 1010
30 11:00 北東 4 10km以上 31 70 1010
30 10:30 北東 5 10km以上 30 75 1010
30 10:00 北北東 3 10km以上 30 75 1010
30 09:30 北北東 2 10km以上 29 79 1010
30 09:00 北北東 3 10km以上 29 79 1010
30 08:30 2 10km以上 28 79 1009
30 08:00 不定 1 10km以上 27 84 1009
30 07:30 不定 1 10km以上 26 89 1009
30 07:00 不定 1 10km以上 26 89 1008
30 06:30 不定 1 10km以上 26 89 1008
30 06:00 不定 1 10km以上 26 89 1008
30 05:30 不定 1 10km以上 26 89 1008
30 05:00 不定 1 10km以上 26 89 1008
30 04:30 不定 1 10km以上 26 89 1008
30 04:00 不定 1 10km以上 26 89 1008
30 03:30 不定 1 10km以上 26 89 1008
30 03:00 不定 1 10km以上 26 89 1009
30 02:30 不定 1 10km以上 26 89 1009
30 02:00 不定 1 10km以上 26 89 1009
30 01:30 不定 1 10km以上 27 84 1010
30 01:00 不定 1 10km以上 27 84 1010
30 00:30 不定 1 10km以上 27 84 1010
30 00:00 北北西 2 10km以上 27 84 1010
29 23:30 2 10km以上 27 84 1010
29 23:00 2 10km以上 27 84 1010
29 22:30 不定 1 10km以上 27 84 1010
29 22:00 2 10km以上 27 84 1010
29 21:30 2 10km以上 28 79 1010
29 21:00 2 10km以上 28 79 1009
29 20:30 2 10km以上 28 79 1009
29 20:00 北東 4 10km以上 28 79 1008
29 19:30 北東 3 10km以上 28 84 1008
29 19:00 北東 4 10km以上 29 74 1007
29 18:30 北東 4 10km以上 29 70 1007
29 18:00 北東 4 10km以上 30 66 1007
29 17:30 不定 2 10km以上 31 62 1006
29 17:00 3 10km以上 30 70 1006
29 16:30 2 10km以上 30 70 1007
29 16:00 3 10km以上 30 66 1007
29 15:30 北北東 2 10km以上 31 62 1007
29 15:00 北西 2 10km以上 31 62 1008
29 14:30 2 10km以上 30 66 1008
29 14:00 不定 2 10km以上 31 62 1009
29 13:30 不定 2 10km以上 30 66 1009
29 13:00 北北西 3 10km以上 30 66 1010
29 12:30 3 10km以上 29 70 1010
29 12:00 3 10km以上 29 70 1011
29 11:30 3 10km以上 29 70 1011
29 11:00 北北西 3 10km以上 28 74 1011
29 10:30 北北西 2 10km以上 28 74 1011
29 10:00 北北西 2 10km以上 28 74 1011
29 09:30 北北西 2 10km以上 27 79 1011
29 09:00 北西 3 10km以上 27 79 1011
29 08:30 北西 2 10km以上 27 79 1011
29 08:00 北西 2 10km以上 26 79 1011
29 07:30 北西 2 10km以上 26 84 1010
29 07:00 不定 1 10km以上 26 84 1010
29 06:30 不定 1 10km以上 26 84 1009
29 06:00 北北西 2 10km以上 26 84 1009
29 05:30 北北西 2 10km以上 26 84 1009
29 05:00 北西 2 10km以上 26 84 1009
WSSS 302000Z VRB02KT 9999 FEW016 BKN150 26/25 Q1008 NOSIG
WSSS 301930Z VRB02KT 9999 FEW016 SCT150 26/25 Q1009 NOSIG
WSSS 301900Z VRB02KT 9999 FEW016 SCT280 26/25 Q1009 NOSIG
WSSS 301830Z VRB02KT 9999 FEW016 SCT280 26/25 Q1010 NOSIG
WSSS 301800Z VRB02KT 9999 FEW016 SCT280 26/24 Q1010 NOSIG
WSSS 301730Z VRB02KT 9999 FEW016 SCT280 26/24 Q1010 NOSIG
WSSS 301700Z 01002KT 9999 FEW016 SCT280 26/24 Q1010 NOSIG
WSSS 301630Z VRB02KT 9999 FEW016 SCT280 26/24 Q1010 NOSIG
WSSS 301600Z 04004KT 360V080 9999 FEW016 SCT280 26/24 Q1010 NOSIG
WSSS 301530Z 03004KT 360V060 9999 FEW016 SCT140 26/24 Q1010 NOSIG
WSSS 301500Z 04002KT 9999 FEW016 SCT140 26/24 Q1010 NOSIG
WSSS 301430Z VRB02KT 9999 FEW016 SCT140 BKN280 26/24 Q1010 NOSIG
WSSS 301400Z 05004KT 9999 FEW016 BKN280 26/24 Q1010 NOSIG
WSSS 301330Z VRB02KT 9999 FEW016 BKN280 26/24 Q1010 NOSIG
WSSS 301300Z 03003KT 9999 FEW016 BKN260 26/24 Q1009 NOSIG
WSSS 301230Z VRB02KT 9999 FEW016 BKN260 26/24 Q1009 NOSIG
WSSS 301200Z 03003KT 350V090 9999 FEW016 BKN260 26/24 Q1008 NOSIG
WSSS 301130Z VRB02KT 9999 FEW016 BKN260 26/24 Q1008 NOSIG
WSSS 301100Z 06005KT 020V080 9999 FEW016 BKN260 26/24 Q1008 NOSIG
WSSS 301030Z 06004KT 010V070 9999 FEW015 BKN260 27/25 Q1007 NOSIG
WSSS 301000Z 04004KT 020V120 9999 FEW015 BKN260 27/25 Q1007 NOSIG
WSSS 300930Z 11005KT 070V140 9999 FEW018 SCT180 BKN260 27/24 Q1007 NOSIG
WSSS 300900Z 14006KT 100V160 9999 FEW018 BKN180 27/24 Q1006 NOSIG
WSSS 300830Z 09004KT 060V120 9999 FEW018 SCT160 BKN270 27/24 Q1007 NOSIG
WSSS 300800Z VRB03KT 9999 FEW018 SCT160 BKN280 27/24 Q1006 NOSIG
WSSS 300730Z 21003KT 180V260 9999 FEW018CB FEW020TCU SCT060 26/24 Q1007 RETS NOSIG
WSSS 300700Z VRB03KT 8000 -TSRA FEW017CB FEW018TCU SCT050 26/24 Q1007 RESHRA BECMG TL0720 NSW
WSSS 300630Z VRB04KT 2500 R20R/0900N R20C/1000N +TSRA FEW012 FEW016CB BKN017TCU 25/24 Q1008 BECMG TL0650 3500 TSRA BECMG FM0650 TL0715 6000 NSW
WSSS 300600Z VRB06KT 6000 2000S -TSRA FEW013 FEW015CB SCT016TCU 27/24 Q1008 TEMPO TL0650 3000 TSRA BECMG FM0650 TL0715 NSW
WSSS 300530Z 05004KT 290V090 9999 VCTS FEW015 SCT017TCU FEW018CB 30/24 Q1008 TEMPO TL0630 3000 TSRA BECMG FM0630 TL0650 NSW
WSSS 300500Z 04005KT 360V070 9999 FEW016 FEW018TCU SCT040 30/24 Q1008 TEMPO FM0510 TL0600 3000 TSRA FEW012CB SCT015
WSSS 300430Z 05008KT 020V080 9999 SCT018 FEW018TCU BKN300 32/25 Q1009 NOSIG
WSSS 300400Z 06008KT 020V080 9999 SCT018 FEW018TCU BKN300 32/25 Q1009 NOSIG
WSSS 300330Z 05007KT 9999 FEW018 BKN300 31/24 Q1010 NOSIG
WSSS 300300Z 05007KT 010V090 9999 FEW018 SCT080 BKN300 31/25 Q1010 NOSIG
WSSS 300230Z 05009KT 010V070 9999 FEW018 SCT070 BKN300 30/25 Q1010 NOSIG
WSSS 300200Z 02005KT 330V070 9999 FEW018 SCT070 BKN150 30/25 Q1010 NOSIG
WSSS 300130Z 02004KT 320V090 9999 FEW018 SCT070 BKN160 29/25 Q1010 NOSIG
WSSS 300100Z 02005KT 350V070 9999 FEW018 BKN300 29/25 Q1010 NOSIG
WSSS 300030Z 01004KT 320V070 9999 FEW018 SCT150 BKN300 28/24 Q1009 NOSIG
WSSS 300000Z VRB02KT 9999 FEW018 BKN170 27/24 Q1009 NOSIG
WSSS 292330Z VRB01KT 9999 FEW018 BKN170 26/24 Q1009 NOSIG
WSSS 292300Z VRB01KT 9999 FEW018 BKN170 26/24 Q1008 NOSIG
WSSS 292230Z VRB01KT 9999 FEW018 BKN170 26/24 Q1008 NOSIG
WSSS 292200Z VRB01KT 9999 FEW018 BKN170 26/24 Q1008 NOSIG
WSSS 292130Z VRB01KT 9999 FEW018 BKN170 26/24 Q1008 NOSIG
WSSS 292100Z VRB02KT 9999 FEW018 BKN170 26/24 Q1008 NOSIG
WSSS 292030Z VRB01KT 9999 FEW018 BKN170 26/24 Q1008 NOSIG
WSSS 292000Z VRB02KT 9999 FEW018 BKN170 26/24 Q1008 NOSIG
WSSS 291930Z VRB02KT 9999 FEW018 BKN170 26/24 Q1008 NOSIG
WSSS 291900Z VRB02KT 9999 FEW018 BKN170 26/24 Q1009 NOSIG
WSSS 291830Z VRB01KT 9999 FEW018 BKN170 26/24 Q1009 NOSIG
WSSS 291800Z VRB02KT 9999 FEW018 BKN170 26/24 Q1009 NOSIG
WSSS 291730Z VRB02KT 9999 FEW018 BKN180 27/24 Q1010 NOSIG
WSSS 291700Z VRB02KT 9999 FEW018 BKN180 27/24 Q1010 NOSIG
WSSS 291630Z VRB02KT 9999 FEW018 BKN180 27/24 Q1010 NOSIG
WSSS 291600Z 34003KT 290V050 9999 FEW018 BKN180 27/24 Q1010 NOSIG
WSSS 291530Z 01003KT 320V060 9999 FEW018 BKN170 27/24 Q1010 NOSIG
WSSS 291500Z 36003KT 270V050 9999 FEW018 BKN150 27/24 Q1010 NOSIG
WSSS 291430Z VRB02KT 9999 FEW018 BKN150 27/24 Q1010 NOSIG
WSSS 291400Z 36004KT 290V040 9999 FEW018 BKN180 27/24 Q1010 NOSIG
WSSS 291330Z 36003KT 310V080 9999 FEW018 BKN180 28/24 Q1010 NOSIG
WSSS 291300Z 35003KT 290V060 9999 FEW018 BKN170 28/24 Q1009 NOSIG
WSSS 291230Z 36004KT 330V060 9999 FEW018 BKN150 28/24 Q1009 NOSIG
WSSS 291200Z 04007KT 360V070 9999 FEW018 BKN150 28/24 Q1008 NOSIG
WSSS 291130Z 04006KT 350V060 9999 FEW018 BKN150 28/25 Q1008 NOSIG
WSSS 291100Z 04008KT 010V070 9999 FEW018 BKN150 29/24 Q1007 NOSIG
WSSS 291030Z 04007KT 010V070 9999 FEW018 BKN150 29/23 Q1007 NOSIG
WSSS 291000Z 04008KT 360V070 9999 FEW018 BKN150 30/23 Q1007 NOSIG
WSSS 290930Z VRB04KT 9999 FEW018 BKN150 31/23 Q1006 NOSIG
WSSS 290900Z VRB05KT 9999 FEW018 BKN150 30/24 Q1006 NOSIG
WSSS 290830Z 01004KT 310V070 9999 FEW018 BKN150 30/24 Q1007 NOSIG
WSSS 290800Z 01005KT 320V100 9999 FEW018 BKN150 30/23 Q1007 NOSIG
WSSS 290730Z 02003KT 300V070 9999 FEW018 BKN150 31/23 Q1007 NOSIG
WSSS 290700Z 32004KT 270V030 9999 FEW018 BKN150 31/23 Q1008 NOSIG
WSSS 290630Z 01004KT 310V060 9999 FEW018 BKN150 30/23 Q1008 NOSIG
WSSS 290600Z VRB03KT 9999 FEW018 BKN150 31/23 Q1009 NOSIG
WSSS 290530Z VRB04KT 9999 FEW018 BKN270 30/23 Q1009 NOSIG
WSSS 290500Z 34005KT 290V070 9999 FEW018 BKN270 30/23 Q1010 NOSIG
WSSS 290430Z 35005KT 270V030 9999 FEW018 SCT150 BKN270 29/23 Q1010 NOSIG
WSSS 290400Z 36005KT 290V050 9999 FEW018 BKN150 29/23 Q1011 NOSIG
WSSS 290330Z 36005KT 330V090 9999 FEW018 BKN150 29/23 Q1011 NOSIG
WSSS 290300Z 34005KT 280V040 9999 FEW018 BKN150 28/23 Q1011 NOSIG
WSSS 290230Z 33003KT 280V070 9999 FEW018 BKN150 28/23 Q1011 NOSIG
WSSS 290200Z 34003KT 270V030 9999 FEW018 BKN150 28/23 Q1011 NOSIG
WSSS 290130Z 33004KT 280V010 9999 FEW018 BKN150 27/23 Q1011 NOSIG
WSSS 290100Z 32005KT 280V010 9999 FEW018 BKN150 27/23 Q1011 NOSIG
WSSS 290030Z 31004KT 250V340 9999 FEW018 BKN150 27/23 Q1011 NOSIG
WSSS 290000Z 31004KT 230V040 9999 FEW018 BKN150 26/22 Q1011 NOSIG
WSSS 282330Z 32003KT 270V030 9999 FEW018 SCT070 BKN150 26/23 Q1010 NOSIG
WSSS 282300Z VRB02KT 9999 FEW018 SCT060 BKN150 26/23 Q1010 NOSIG
WSSS 282230Z VRB02KT 9999 FEW018 SCT060 BKN150 26/23 Q1009 NOSIG
WSSS 282200Z 33003KT 300V010 9999 FEW018 BKN150 26/23 Q1009 NOSIG
WSSS 282130Z 34004KT 290V010 9999 FEW018 SCT080 BKN150 26/23 Q1009 NOSIG
WSSS 282100Z 31003KT 270V060 9999 FEW018 SCT080 BKN150 26/23 Q1009 NOSIG